Time;durP1;ratioP1;P1;durP2;ratioP2;P2;SDS_P1;SDS_P2;PMS_P1;PMS_P2;Temp;Humidity;BMP_temperature;BMP_pressure;BME280_temperature;BME280_humidity;BME280_pressure;Samples;Min_cycle;Max_cycle;Signal;HPM_P1;HPM_P2
2022/11/07 00:03:00;;;;;;;36.13;27.48;;;26.80;99.90;;;;;;4819594;29;20449;-64
2022/11/07 00:08:54;;;;;;;43.42;25.35;;;26.70;99.90;;;;;;4783270;30;20054;-62
2022/11/07 00:17:31;;;;;;;38.58;27.15;;;26.80;99.90;;;;;;5150747;27;20123;-62
2022/11/07 00:23:03;;;;;;;35.97;25.83;;;26.70;99.90;;;;;;4935281;28;2033745;-62
2022/11/07 00:31:24;;;;;;;39.88;26.83;;;26.80;99.90;;;;;;4931536;29;20156;-62
2022/11/07 00:34:10;;;;;;;31.83;24.33;;;26.80;99.90;;;;;;4931364;29;20060;-63
2022/11/07 00:36:37;;;;;;;32.95;23.45;;;26.90;99.90;;;;;;4837819;29;20137;-63
2022/11/07 00:39:05;;;;;;;43.38;31.10;;;26.80;99.90;;;;;;4837803;29;20049;-62
2022/11/07 01:01:23;;;;;;;27.23;22.73;;;27.20;99.90;;;;;;4951577;29;20552;-62
2022/11/07 01:07:00;;;;;;;38.00;27.85;;;27.10;99.90;;;;;;4875326;29;20037;-62
2022/11/07 01:21:27;;;;;;;27.05;20.02;;;27.40;99.90;;;;;;5150672;27;20138;-62
2022/11/07 01:24:13;;;;;;;29.48;20.65;;;27.50;99.90;;;;;;5025987;28;20049;-63
2022/11/07 01:39:37;;;;;;;33.22;23.02;;;27.70;99.90;;;;;;5192356;27;20395;-63
2022/11/07 01:42:44;;;;;;;35.83;22.42;;;27.70;99.90;;;;;;5172416;27;20018;-62
2022/11/07 01:51:27;;;;;;;34.13;23.98;;;27.70;99.90;;;;;;4856318;29;20041;-63
2022/11/07 01:53:55;;;;;;;29.38;22.63;;;27.80;99.90;;;;;;4837763;29;20062;-63
2022/11/07 01:56:25;;;;;;;27.80;21.95;;;27.90;99.90;;;;;;4838048;29;20046;-62
2022/11/07 02:18:09;;;;;;;54.08;28.42;;;28.20;99.90;;;;;;5068002;28;20037;-63
2022/11/07 02:24:08;;;;;;;24.98;19.75;;;28.10;99.90;;;;;;4950490;29;20043;-63
2022/11/07 02:32:52;;;;;;;27.35;18.70;;;28.20;99.90;;;;;;4856287;29;20124;-63
2022/11/07 02:35:59;;;;;;;28.13;19.52;;;28.20;99.90;;;;;;4819713;29;20092;-64
2022/11/07 02:45:20;;;;;;;56.65;43.28;;;28.40;99.90;;;;;;5194502;27;20365;-62
2022/11/07 02:47:47;;;;;;;29.38;23.50;;;28.50;99.90;;;;;;5173071;27;20026;-62
2022/11/07 02:53:41;;;;;;;53.78;37.40;;;28.80;99.90;;;;;;5068418;28;20035;-63
2022/11/07 02:59:15;;;;;;;51.13;33.45;;;29.00;99.90;;;;;;4893253;29;20128;-64
2022/11/07 03:01:41;;;;;;;25.58;18.80;;;29.00;99.90;;;;;;4893322;29;20044;-63
2022/11/07 03:07:14;;;;;;;46.50;36.38;;;29.40;99.90;;;;;;4819510;29;20031;-64
2022/11/07 03:10:01;;;;;;;56.05;43.75;;;29.70;99.90;;;;;;4819243;29;20038;-64
2022/11/07 03:12:47;;;;;;;23.83;16.67;;;29.70;99.90;;;;;;4783148;29;20097;-68
2022/11/07 03:25:29;;;;;;;31.38;19.38;;;29.60;99.90;;;;;;5150090;27;20602;-63
2022/11/07 03:31:04;;;;;;;21.85;16.95;;;29.70;99.90;;;;;;4950247;29;20082;-63
2022/11/07 03:33:51;;;;;;;22.30;16.17;;;29.70;99.90;;;;;;4931209;29;20067;-63
2022/11/07 03:40:04;;;;;;;27.38;18.13;;;29.70;99.90;;;;;;4819383;29;20049;-64
2022/11/07 03:52:08;;;;;;;22.05;16.75;;;29.80;99.90;;;;;;5003107;28;20046;-64
2022/11/07 04:00:30;;;;;;;21.98;16.30;;;30.30;99.90;;;;;;4892954;29;20036;-62
2022/11/07 04:03:17;;;;;;;30.23;20.42;;;30.40;99.90;;;;;;4893252;29;20531;-65
2022/11/07 04:06:03;;;;;;;35.63;20.42;;;30.50;99.90;;;;;;4856367;29;20579;-63
2022/11/07 04:08:32;;;;;;;330.80;208.18;;;30.60;99.90;;;;;;4801772;29;20084;-62
2022/11/07 04:20:34;;;;;;;36.30;22.30;;;31.00;99.90;;;;;;5060869;27;2444983;-62
2022/11/07 04:28:53;;;;;;;49.47;33.70;;;31.30;99.90;;;;;;4931318;29;20151;-64
2022/11/07 04:31:40;;;;;;;63.33;37.90;;;31.40;99.90;;;;;;4931408;29;20040;-62
2022/11/07 04:34:06;;;;;;;39.60;24.17;;;31.50;99.90;;;;;;4874647;29;20042;-63
2022/11/07 04:39:39;;;;;;;39.80;22.15;;;31.40;99.90;;;;;;4838156;29;20070;-63
2022/11/07 04:45:13;;;;;;;52.63;39.67;;;31.20;99.90;;;;;;4780987;30;20195;-64
2022/11/07 05:00:43;;;;;;;29.88;20.75;;;31.40;99.90;;;;;;5150586;27;20122;-64
2022/11/07 05:03:14;;;;;;;26.58;19.10;;;31.20;99.90;;;;;;4366169;28;19095333;-64
2022/11/07 05:05:41;;;;;;;58.60;32.13;;;31.20;99.90;;;;;;5047894;28;20110;-64
2022/11/07 05:11:34;;;;;;;53.95;28.58;;;31.30;99.90;;;;;;4870381;29;20033;-64
2022/11/07 05:14:40;;;;;;;32.63;20.80;;;31.20;99.90;;;;;;4853864;29;20066;-64
2022/11/07 05:17:46;;;;;;;31.65;22.77;;;31.40;99.90;;;;;;4759131;30;20044;-65
2022/11/07 05:26:22;;;;;;;40.75;18.75;;;31.50;99.90;;;;;;4485532;27;18719942;-64
2022/11/07 05:32:15;;;;;;;43.60;33.47;;;31.50;99.90;;;;;;5022601;28;20045;-65
2022/11/07 05:34:42;;;;;;;48.90;34.78;;;31.70;99.90;;;;;;4987626;28;20280;-65
2022/11/07 05:40:54;;;;;;;25.63;19.40;;;31.60;99.90;;;;;;4836470;29;20117;-65
2022/11/07 05:44:01;;;;;;;294.17;204.93;;;31.50;99.90;;;;;;4764264;30;20047;-66
2022/11/07 05:52:55;;;;;;;23.17;15.80;;;31.10;99.90;;;;;;5040728;27;2640213;-64
2022/11/07 06:04:43;;;;;;;18.98;14.30;;;30.30;99.90;;;;;;4818378;29;20031;-62
2022/11/07 06:07:12;;;;;;;18.50;15.73;;;30.30;99.90;;;;;;4763301;30;20356;-64
2022/11/07 06:21:19;;;;;;;23.67;17.63;;;30.10;99.90;;;;;;5128563;27;20480;-64
2022/11/07 06:24:25;;;;;;;25.15;17.15;;;29.90;99.90;;;;;;4949966;28;2415021;-63
2022/11/07 06:29:58;;;;;;;23.17;19.30;;;29.90;99.90;;;;;;4899545;29;20033;-65
2022/11/07 06:35:32;;;;;;;24.27;21.35;;;29.80;99.90;;;;;;4781781;30;20097;-64
2022/11/07 06:38:39;;;;;;;26.23;20.23;;;29.60;99.90;;;;;;4781868;30;20048;-65
2022/11/07 07:03:12;;;;;;;36.17;24.13;;;29.50;99.90;;;;;;4910364;29;20031;-66
2022/11/07 07:06:18;;;;;;;32.72;24.65;;;29.60;99.90;;;;;;4908717;29;20363;-65
2022/11/07 07:08:48;;;;;;;29.90;24.17;;;29.60;99.90;;;;;;4764796;30;20058;-65
2022/11/07 07:11:36;;;;;;;35.83;24.42;;;29.60;99.90;;;;;;4760871;30;20123;-65
2022/11/07 07:14:42;;;;;;;28.30;22.83;;;29.70;99.90;;;;;;4715775;30;20045;-65
2022/11/07 07:26:05;;;;;;;28.85;21.67;;;29.60;99.90;;;;;;5068038;28;20475;-66
2022/11/07 07:31:41;;;;;;;21.25;13.93;;;29.50;99.90;;;;;;4951254;28;20353;-65
2022/11/07 07:53:03;;;;;;;11.43;8.90;;;28.80;99.90;;;;;;5058681;28;20032;-64
2022/11/07 08:02:02;;;;;;;21.70;12.63;;;28.70;99.90;;;;;;4903116;29;20088;-65
2022/11/07 08:04:49;;;;;;;20.33;10.82;;;28.50;99.90;;;;;;4834887;29;20038;-65
2022/11/07 08:07:36;;;;;;;20.27;11.40;;;28.30;99.90;;;;;;4819460;29;20074;-65
2022/11/07 08:30:06;;;;;;;24.27;10.68;;;28.40;99.90;;;;;;5702334;22;20056;-69
2022/11/07 08:32:33;;;;;;;23.00;11.15;;;28.50;99.90;;;;;;5079575;28;20048;-68
2022/11/07 08:34:59;;;;;;;17.40;10.05;;;28.50;99.90;;;;;;5078614;28;20464;-69
2022/11/07 08:37:26;;;;;;;22.73;11.48;;;28.40;99.90;;;;;;5072935;28;20021;-68
2022/11/07 08:39:52;;;;;;;19.90;12.23;;;28.40;99.90;;;;;;5069932;28;20020;-68
2022/11/07 08:42:19;;;;;;;19.65;11.25;;;28.40;99.90;;;;;;5070103;28;20013;-69
2022/11/07 08:44:45;;;;;;;17.00;11.57;;;28.40;99.90;;;;;;5070019;28;20112;-68
2022/11/07 08:47:12;;;;;;;29.77;14.00;;;28.30;99.90;;;;;;5069817;28;20104;-69
2022/11/07 08:49:38;;;;;;;24.25;13.57;;;28.50;99.90;;;;;;5081562;28;20539;-69
2022/11/07 08:52:05;;;;;;;32.53;14.05;;;28.50;99.90;;;;;;5069328;28;20037;-69
2022/11/07 08:54:32;;;;;;;24.05;14.00;;;28.60;99.90;;;;;;5069547;28;20103;-68
2022/11/07 08:56:59;;;;;;;29.45;15.38;;;28.70;99.90;;;;;;5069612;28;20025;-68
2022/11/07 08:59:25;;;;;;;22.42;14.02;;;28.70;99.90;;;;;;5069727;28;20043;-68
2022/11/07 09:01:52;;;;;;;30.52;16.50;;;28.70;99.90;;;;;;5071837;28;20024;-70
2022/11/07 09:04:18;;;;;;;34.80;16.38;;;28.60;99.90;;;;;;5087720;28;20464;-69
2022/11/07 09:06:45;;;;;;;35.65;16.95;;;28.60;99.90;;;;;;5086397;28;20100;-69
2022/11/07 09:09:11;;;;;;;26.20;16.90;;;28.50;99.90;;;;;;5069336;28;20492;-69
2022/11/07 09:11:38;;;;;;;28.80;16.25;;;28.50;99.90;;;;;;5069443;28;20028;-69
2022/11/07 09:14:04;;;;;;;26.73;14.10;;;28.50;99.90;;;;;;5070811;28;20460;-69
2022/11/07 09:16:31;;;;;;;35.25;15.07;;;28.50;99.90;;;;;;5085369;28;20020;-69
2022/11/07 09:18:57;;;;;;;34.05;14.95;;;28.50;99.90;;;;;;5088040;28;20530;-68
2022/11/07 09:21:24;;;;;;;30.75;15.05;;;28.50;99.90;;;;;;5087983;28;20017;-69
2022/11/07 09:23:52;;;;;;;33.40;16.35;;;28.60;99.90;;;;;;5087763;28;20028;-69
2022/11/07 09:26:18;;;;;;;33.10;21.65;;;28.70;99.90;;;;;;5079920;28;20381;-69
2022/11/07 09:28:45;;;;;;;35.97;18.08;;;28.70;99.90;;;;;;5074260;28;20028;-69
2022/11/07 09:31:12;;;;;;;35.38;16.20;;;28.70;99.90;;;;;;5063535;28;20037;-69
2022/11/07 09:33:38;;;;;;;31.48;16.98;;;28.70;99.90;;;;;;5065229;28;20523;-70
2022/11/07 09:36:05;;;;;;;28.38;17.92;;;28.70;99.90;;;;;;5063751;28;20462;-69
2022/11/07 09:38:32;;;;;;;27.08;18.85;;;28.80;99.90;;;;;;5063621;28;20429;-68
2022/11/07 09:41:09;;;;;;;48.83;26.75;;;28.80;99.90;;;;;;5067534;28;20021;-69
2022/11/07 09:43:56;;;;;;;62.17;45.58;;;28.80;99.90;;;;;;5065492;28;20400;-70
2022/11/07 09:46:26;;;;;;;138.30;109.85;;;28.70;99.90;;;;;;5063782;28;20031;-69
2022/11/07 09:49:00;;;;;;;137.57;114.32;;;28.80;99.90;;;;;;5068472;28;20021;-70
2022/11/07 09:51:41;;;;;;;93.88;73.53;;;28.80;99.90;;;;;;5063552;28;20075;-70
2022/11/07 09:54:21;;;;;;;38.65;29.42;;;28.80;99.90;;;;;;5063733;28;20056;-71
2022/11/07 09:56:48;;;;;;;43.25;26.55;;;28.80;99.90;;;;;;5066752;28;20036;-71
2022/11/07 09:59:28;;;;;;;48.75;25.42;;;28.70;99.90;;;;;;5066102;28;20465;-69
2022/11/07 10:01:54;;;;;;;57.90;36.13;;;28.70;99.90;;;;;;5059811;28;20013;-69
2022/11/07 10:04:22;;;;;;;78.00;47.97;;;28.80;99.90;;;;;;5065588;28;20028;-70
2022/11/07 10:07:01;;;;;;;52.65;35.30;;;28.80;99.90;;;;;;5059865;28;20086;-70
2022/11/07 10:09:34;;;;;;;48.47;30.02;;;28.80;99.90;;;;;;5063314;28;20033;-70
2022/11/07 10:12:09;;;;;;;59.47;36.80;;;28.70;99.90;;;;;;5063110;28;20444;-68
2022/11/07 10:14:56;;;;;;;56.05;33.88;;;28.80;99.90;;;;;;5065735;28;20028;-71
2022/11/07 10:17:24;;;;;;;58.60;31.95;;;28.80;99.90;;;;;;5065883;28;20065;-73
2022/11/07 10:20:02;;;;;;;42.00;25.98;;;28.90;99.90;;;;;;5065059;28;20016;-69
2022/11/07 10:22:44;;;;;;;53.50;25.77;;;28.80;99.90;;;;;;5065969;28;20025;-69
2022/11/07 10:25:19;;;;;;;;;;;28.80;99.90;;;;;;5067544;28;20040;-68
2022/11/07 10:27:58;;;;;;;66.10;39.60;;;28.80;99.90;;;;;;5067099;28;19909;-68
2022/11/07 10:30:24;;;;;;;88.10;52.95;;;28.80;99.90;;;;;;5066335;28;20044;-66
2022/11/07 10:33:07;;;;;;;97.45;58.40;;;28.70;99.90;;;;;;5067805;28;20487;-66
2022/11/07 10:35:37;;;;;;;95.30;64.43;;;28.70;99.90;;;;;;5062564;28;20025;-67
2022/11/07 10:38:18;;;;;;;88.35;47.35;;;28.70;99.90;;;;;;5066201;28;20453;-67
2022/11/07 10:40:46;;;;;;;89.88;51.60;;;28.70;99.90;;;;;;5064505;28;20066;-67
2022/11/07 10:43:21;;;;;;;91.75;49.63;;;28.70;99.90;;;;;;5060336;28;20112;-68
2022/11/07 10:45:48;;;;;;;85.78;45.58;;;28.70;99.90;;;;;;5066272;28;20025;-67
2022/11/07 10:48:15;;;;;;;82.45;47.17;;;28.70;99.90;;;;;;5060030;28;20414;-68
2022/11/07 10:50:51;;;;;;;90.05;51.70;;;28.70;99.90;;;;;;5060239;28;20434;-67
2022/11/07 10:53:20;;;;;;;80.78;45.85;;;28.70;99.90;;;;;;5061764;28;20051;-66
2022/11/07 10:55:49;;;;;;;91.82;49.95;;;28.70;99.90;;;;;;5063167;28;20041;-67
2022/11/07 10:58:34;;;;;;;88.57;54.03;;;28.70;99.90;;;;;;5059279;28;20025;-67
2022/11/07 11:01:05;;;;;;;122.45;68.97;;;28.70;99.90;;;;;;5064126;28;20021;-67
2022/11/07 11:03:42;;;;;;;129.32;75.95;;;28.60;99.90;;;;;;5071662;28;20035;-67
2022/11/07 11:06:21;;;;;;;181.82;105.07;;;28.60;99.90;;;;;;5065134;28;20050;-67
2022/11/07 11:08:50;;;;;;;193.77;105.38;;;28.70;99.90;;;;;;5072580;28;20107;-67
2022/11/07 11:11:29;;;;;;;185.98;97.90;;;28.60;99.90;;;;;;5069434;28;20074;-67
2022/11/07 11:14:15;;;;;;;218.80;116.57;;;28.60;99.90;;;;;;5074124;28;20024;-66
2022/11/07 11:16:42;;;;;;;217.38;114.70;;;28.50;99.90;;;;;;5064524;28;20389;-68
2022/11/07 11:19:33;;;;;;;210.32;115.63;;;28.50;99.90;;;;;;5053804;28;20017;-66
2022/11/07 11:22:00;;;;;;;209.60;117.65;;;28.50;99.90;;;;;;5062585;28;20028;-66
2022/11/07 11:24:36;;;;;;;209.02;117.65;;;28.40;99.90;;;;;;5054227;28;20029;-67
2022/11/07 11:27:24;;;;;;;181.82;102.93;;;28.40;99.90;;;;;;5057646;28;20035;-68
2022/11/07 11:30:06;;;;;;;154.73;87.30;;;28.40;99.90;;;;;;5069704;28;20044;-68
2022/11/07 11:32:54;;;;;;;143.55;78.90;;;28.30;99.90;;;;;;5073737;28;20031;-67
2022/11/07 11:35:33;;;;;;;132.90;78.30;;;28.30;99.90;;;;;;4992356;28;20446;-64
2022/11/07 11:38:22;;;;;;;130.48;75.90;;;28.30;99.90;;;;;;4987335;28;20506;-66
2022/11/07 11:40:58;;;;;;;138.50;79.93;;;28.20;99.90;;;;;;4985678;28;20113;-67
2022/11/07 11:43:35;;;;;;;120.43;67.55;;;28.20;99.90;;;;;;4992233;28;20045;-66
2022/11/07 11:46:34;;;;;;;106.13;62.35;;;28.20;99.90;;;;;;4992097;28;20077;-67
2022/11/07 11:49:18;;;;;;;97.85;55.92;;;28.30;99.90;;;;;;4992248;28;20050;-67
2022/11/07 11:51:48;;;;;;;86.32;51.30;;;28.20;99.90;;;;;;4992313;28;20487;-66
2022/11/07 11:54:16;;;;;;;78.38;49.13;;;28.20;99.90;;;;;;4992291;28;20486;-67
2022/11/07 11:56:47;;;;;;;96.07;52.05;;;28.20;99.90;;;;;;4992034;28;20019;-67
2022/11/07 11:59:50;;;;;;;91.68;52.85;;;28.20;99.90;;;;;;4990470;28;20130;-67
2022/11/07 12:02:46;;;;;;;94.82;50.83;;;28.10;99.90;;;;;;4981214;28;20034;-68
2022/11/07 12:05:28;;;;;;;62.65;38.03;;;28.10;99.90;;;;;;5004799;28;20397;-67
2022/11/07 12:08:34;;;;;;;66.80;38.00;;;28.00;99.90;;;;;;5061061;28;20078;-67
2022/11/07 12:11:04;;;;;;;53.55;33.42;;;27.90;99.90;;;;;;4980758;28;20175;-66
2022/11/07 12:14:00;;;;;;;60.80;34.55;;;28.00;99.90;;;;;;4991216;28;20045;-66
2022/11/07 12:16:51;;;;;;;50.53;32.65;;;28.00;99.90;;;;;;4914520;29;20420;-67
2022/11/07 12:19:40;;;;;;;38.57;28.13;;;27.90;99.90;;;;;;4915035;29;20032;-66
2022/11/07 12:22:41;;;;;;;39.33;27.50;;;27.90;99.90;;;;;;4914234;29;20320;-67
2022/11/07 12:25:27;;;;;;;41.97;29.35;;;27.80;99.90;;;;;;4913153;29;20043;-67
2022/11/07 12:28:00;;;;;;;42.53;29.38;;;27.80;99.90;;;;;;4912815;29;20408;-65
2022/11/07 12:30:35;;;;;;;46.20;33.80;;;27.80;99.90;;;;;;4912576;29;20060;-66
2022/11/07 12:33:18;;;;;;;42.78;28.48;;;27.80;99.90;;;;;;4913022;29;20393;-66
2022/11/07 12:35:55;;;;;;;39.35;26.98;;;27.80;99.90;;;;;;4913033;29;20036;-67
2022/11/07 12:38:42;;;;;;;50.13;28.52;;;27.80;99.90;;;;;;4912752;29;20485;-66
2022/11/07 12:41:22;;;;;;;57.22;30.23;;;27.80;99.90;;;;;;4915026;29;20020;-68
2022/11/07 12:43:49;;;;;;;54.20;33.63;;;27.80;99.90;;;;;;4914773;29;20472;-67
2022/11/07 12:46:24;;;;;;;61.83;33.67;;;27.80;99.90;;;;;;4914889;29;20021;-68
2022/11/07 12:49:11;;;;;;;60.47;33.85;;;27.80;99.90;;;;;;4914932;29;20149;-68
2022/11/07 12:51:54;;;;;;;35.45;24.80;;;27.80;99.90;;;;;;4913886;29;20311;-65
2022/11/07 12:54:24;;;;;;;52.25;29.80;;;27.70;99.90;;;;;;4905458;29;20119;-69
2022/11/07 12:56:52;;;;;;;123.18;54.58;;;27.70;99.90;;;;;;4901701;29;20088;-69
2022/11/07 12:59:27;;;;;;;72.32;41.00;;;27.70;99.90;;;;;;4931643;28;20031;-70
2022/11/07 13:02:03;;;;;;;78.50;42.83;;;27.80;99.90;;;;;;4989221;28;20491;-69
2022/11/07 13:04:51;;;;;;;53.42;29.55;;;27.80;99.90;;;;;;4989054;28;20026;-68
2022/11/07 13:07:41;;;;;;;33.65;24.48;;;27.80;99.90;;;;;;5031174;28;20032;-68
2022/11/07 13:10:12;;;;;;;36.17;27.00;;;27.80;99.90;;;;;;5064478;28;20021;-70
2022/11/07 13:13:02;;;;;;;45.22;33.78;;;27.80;99.90;;;;;;5067468;28;20036;-69
2022/11/07 13:15:29;;;;;;;39.92;29.95;;;27.80;99.90;;;;;;4967326;28;20475;-69
2022/11/07 13:17:56;;;;;;;140.05;106.97;;;27.80;99.90;;;;;;4966364;28;20495;-65
2022/11/07 13:20:25;;;;;;;60.90;35.97;;;27.90;99.90;;;;;;4966749;28;20121;-68
2022/11/07 13:22:54;;;;;;;125.90;84.47;;;27.80;99.90;;;;;;4964904;28;20027;-67
2022/11/07 13:25:39;;;;;;;48.35;30.88;;;27.90;99.90;;;;;;4968080;28;20458;-67
2022/11/07 13:28:15;;;;;;;31.25;24.98;;;27.90;99.90;;;;;;4966582;28;20027;-66
2022/11/07 13:30:54;;;;;;;36.83;24.30;;;27.80;99.90;;;;;;4965193;28;20043;-68
2022/11/07 13:33:30;;;;;;;56.58;38.67;;;27.90;99.90;;;;;;4968889;28;20034;-67
2022/11/07 13:36:12;;;;;;;52.53;32.72;;;28.00;99.90;;;;;;4967302;28;20039;-68
2022/11/07 13:38:51;;;;;;;42.20;27.87;;;27.90;99.90;;;;;;4964584;28;20429;-68
2022/11/07 13:41:19;;;;;;;74.97;41.22;;;28.00;99.90;;;;;;4966516;28;20254;-66
2022/11/07 13:44:10;;;;;;;66.82;41.55;;;28.00;99.90;;;;;;4965727;28;20057;-68
2022/11/07 13:46:44;;;;;;;46.22;34.25;;;28.00;99.90;;;;;;5022397;28;20041;-67
2022/11/07 13:49:18;;;;;;;85.20;67.18;;;27.90;99.90;;;;;;5047549;28;20104;-66
2022/11/07 13:51:49;;;;;;;47.78;33.25;;;27.90;99.90;;;;;;5045823;28;20056;-67
2022/11/07 13:54:38;;;;;;;34.53;28.63;;;27.80;99.90;;;;;;5045481;28;20021;-66
2022/11/07 13:57:23;;;;;;;39.55;26.85;;;27.80;99.90;;;;;;5051930;28;20025;-67
2022/11/07 13:59:57;;;;;;;38.38;28.45;;;27.70;99.90;;;;;;5045303;28;20069;-66
2022/11/07 14:02:26;;;;;;;34.45;25.48;;;27.70;99.90;;;;;;5045234;28;20100;-67
2022/11/07 14:04:59;;;;;;;38.35;25.55;;;27.70;99.90;;;;;;5043735;28;20064;-66
2022/11/07 14:07:26;;;;;;;31.08;24.80;;;27.80;99.90;;;;;;5047987;28;20027;-66
2022/11/07 14:09:57;;;;;;;47.17;30.38;;;27.80;99.90;;;;;;5045214;28;20067;-66
2022/11/07 14:12:25;;;;;;;45.90;31.27;;;27.70;99.90;;;;;;5046316;28;20461;-65
2022/11/07 14:14:54;;;;;;;45.85;29.02;;;27.70;99.90;;;;;;5046416;28;20032;-63
2022/11/07 14:17:31;;;;;;;45.83;27.02;;;27.70;99.90;;;;;;5045374;28;20095;-64
2022/11/07 14:20:18;;;;;;;39.13;27.00;;;27.60;99.90;;;;;;5045193;28;20358;-65
2022/11/07 14:22:50;;;;;;;38.00;26.98;;;27.70;99.90;;;;;;5044562;28;20033;-65
2022/11/07 14:25:32;;;;;;;37.27;27.93;;;27.60;99.90;;;;;;5044909;28;20030;-65
2022/11/07 14:27:59;;;;;;;40.90;27.42;;;27.60;99.90;;;;;;5044826;28;20297;-64
2022/11/07 14:30:29;;;;;;;42.72;28.40;;;27.60;99.90;;;;;;5056398;28;20052;-65
2022/11/07 14:32:59;;;;;;;32.63;24.20;;;27.60;99.90;;;;;;5065076;28;20028;-64
2022/11/07 14:35:28;;;;;;;34.72;21.70;;;27.60;99.90;;;;;;5065990;28;20032;-65
2022/11/07 14:37:57;;;;;;;35.58;22.38;;;27.60;99.90;;;;;;5064761;28;20025;-65
2022/11/07 14:40:27;;;;;;;31.60;24.67;;;27.60;99.90;;;;;;5068716;28;20021;-64
2022/11/07 14:42:54;;;;;;;37.15;25.40;;;27.60;99.90;;;;;;5066483;28;20024;-65
2022/11/07 14:45:22;;;;;;;36.13;24.00;;;27.50;99.90;;;;;;5069260;28;20024;-65
2022/11/07 14:47:48;;;;;;;35.08;21.90;;;27.50;99.90;;;;;;5068603;28;20029;-65
2022/11/07 14:50:23;;;;;;;28.67;21.52;;;27.50;99.90;;;;;;5063809;28;20024;-65
2022/11/07 14:53:01;;;;;;;37.97;25.88;;;27.50;99.90;;;;;;5066455;28;20035;-65
2022/11/07 14:55:35;;;;;;;32.90;25.83;;;27.50;99.90;;;;;;5063633;28;20098;-65
2022/11/07 14:58:04;;;;;;;44.53;29.17;;;27.50;99.90;;;;;;5064670;28;20021;-65
2022/11/07 15:00:32;;;;;;;35.80;27.67;;;27.50;99.90;;;;;;5065879;28;20055;-65
2022/11/07 15:03:00;;;;;;;40.40;29.58;;;27.50;99.90;;;;;;5064552;28;20017;-65
2022/11/07 15:05:28;;;;;;;41.30;30.02;;;27.50;99.90;;;;;;5063844;28;20028;-66
2022/11/07 15:07:58;;;;;;;40.80;28.70;;;27.40;99.90;;;;;;5063607;28;20021;-66
2022/11/07 15:10:35;;;;;;;40.88;30.45;;;27.40;99.90;;;;;;5063813;28;20423;-65
2022/11/07 15:13:04;;;;;;;44.50;30.70;;;27.40;99.90;;;;;;5068943;28;20028;-66
2022/11/07 15:15:35;;;;;;;40.20;30.73;;;27.40;99.90;;;;;;5067975;28;20035;-67
2022/11/07 15:18:05;;;;;;;47.95;30.42;;;27.40;99.90;;;;;;5066269;28;20043;-64
2022/11/07 15:20:31;;;;;;;46.13;32.28;;;27.40;99.90;;;;;;5062765;28;20047;-65
2022/11/07 15:22:59;;;;;;;45.00;33.30;;;27.40;99.90;;;;;;5063347;28;20025;-62
2022/11/07 15:25:32;;;;;;;41.65;32.70;;;27.40;99.90;;;;;;5058911;28;20086;-65
2022/11/07 15:28:10;;;;;;;48.47;34.17;;;27.40;99.90;;;;;;5065249;28;20070;-65
2022/11/07 15:30:37;;;;;;;54.97;35.15;;;27.40;99.90;;;;;;5065318;28;20053;-64
2022/11/07 15:33:05;;;;;;;44.40;30.15;;;27.40;99.90;;;;;;5066022;28;20027;-64
2022/11/07 15:35:32;;;;;;;48.08;30.00;;;27.40;99.90;;;;;;5061645;28;20587;-64
2022/11/07 15:38:00;;;;;;;39.85;29.58;;;27.40;99.90;;;;;;5061507;28;20035;-64
2022/11/07 15:40:28;;;;;;;40.30;29.65;;;27.40;99.90;;;;;;5062403;28;20075;-65
2022/11/07 15:42:55;;;;;;;40.45;29.02;;;27.40;99.90;;;;;;5063096;28;20108;-64
2022/11/07 15:45:22;;;;;;;34.05;26.25;;;27.30;99.90;;;;;;5060665;28;20021;-65
2022/11/07 15:47:49;;;;;;;40.10;28.27;;;27.30;99.90;;;;;;5068389;28;20028;-64
2022/11/07 15:50:24;;;;;;;38.38;28.38;;;27.30;99.90;;;;;;5062376;28;20095;-64
2022/11/07 15:52:52;;;;;;;37.10;29.27;;;27.30;99.90;;;;;;5065131;28;20432;-65
2022/11/07 15:55:21;;;;;;;36.67;27.90;;;27.30;99.90;;;;;;5062578;28;20108;-64
2022/11/07 15:57:51;;;;;;;40.95;27.17;;;27.30;99.90;;;;;;5064124;28;20025;-65
2022/11/07 16:00:21;;;;;;;45.83;28.13;;;27.30;99.90;;;;;;5064571;28;20318;-65
2022/11/07 16:02:47;;;;;;;39.83;29.08;;;27.30;99.90;;;;;;5064366;28;20067;-65
2022/11/07 16:05:15;;;;;;;31.33;26.77;;;27.30;99.90;;;;;;5064638;28;20060;-65
2022/11/07 16:07:43;;;;;;;38.60;27.80;;;27.30;99.90;;;;;;5063238;28;20029;-66
2022/11/07 16:10:20;;;;;;;32.83;26.08;;;27.20;99.90;;;;;;5052382;28;20567;-64
2022/11/07 16:12:49;;;;;;;29.63;25.02;;;27.30;99.90;;;;;;5052053;28;20024;-66
2022/11/07 16:15:18;;;;;;;36.40;22.83;;;27.20;99.90;;;;;;5053923;28;20370;-64
2022/11/07 16:17:45;;;;;;;33.78;24.75;;;27.20;99.90;;;;;;5052310;28;20029;-63
2022/11/07 16:20:15;;;;;;;38.55;29.50;;;27.20;99.90;;;;;;5054211;28;20025;-64
2022/11/07 16:22:43;;;;;;;42.03;30.83;;;27.20;99.90;;;;;;5053563;28;20017;-65
2022/11/07 16:25:16;;;;;;;49.10;30.77;;;27.10;99.90;;;;;;5052767;28;20274;-66
2022/11/07 16:27:49;;;;;;;42.17;31.27;;;27.10;99.90;;;;;;5051479;28;20488;-66
2022/11/07 16:30:17;;;;;;;46.00;29.13;;;27.10;99.90;;;;;;5039314;28;20104;-67
2022/11/07 16:32:43;;;;;;;50.97;29.35;;;27.20;99.90;;;;;;5033324;28;20105;-67
2022/11/07 16:35:10;;;;;;;39.40;25.02;;;27.20;99.90;;;;;;5032877;28;20065;-66
2022/11/07 16:37:37;;;;;;;33.25;23.63;;;27.20;99.90;;;;;;5031283;28;20274;-68
2022/11/07 16:40:05;;;;;;;42.75;24.17;;;27.10;99.90;;;;;;5035885;28;20071;-67
2022/11/07 16:42:32;;;;;;;35.50;24.73;;;27.10;99.90;;;;;;5037396;28;20016;-66
2022/11/07 16:44:58;;;;;;;34.28;21.15;;;27.10;99.90;;;;;;5037001;28;20021;-66
2022/11/07 16:47:25;;;;;;;35.88;22.88;;;27.10;99.90;;;;;;5036989;28;20056;-65
2022/11/07 16:49:52;;;;;;;29.38;20.77;;;27.10;99.90;;;;;;5037492;28;20036;-65
2022/11/07 16:52:19;;;;;;;33.55;21.45;;;27.10;99.90;;;;;;5037190;28;20026;-65
2022/11/07 16:54:46;;;;;;;35.40;20.65;;;27.10;99.90;;;;;;5037331;28;20033;-66
2022/11/07 16:57:15;;;;;;;28.75;19.77;;;27.10;99.90;;;;;;5036948;28;20422;-65
2022/11/07 16:59:43;;;;;;;33.45;22.30;;;27.10;99.90;;;;;;5036833;28;20466;-64
2022/11/07 17:02:21;;;;;;;29.17;20.45;;;27.10;99.90;;;;;;5037059;28;20049;-64
2022/11/07 17:04:49;;;;;;;29.92;19.92;;;27.10;99.90;;;;;;5036733;28;20037;-63
2022/11/07 17:07:17;;;;;;;46.20;20.77;;;27.00;99.90;;;;;;5036908;28;20034;-64
2022/11/07 17:09:44;;;;;;;28.98;21.10;;;27.00;99.90;;;;;;5036899;28;20076;-64
2022/11/07 17:12:15;;;;;;;35.13;20.92;;;27.00;99.90;;;;;;5036969;28;20025;-61
2022/11/07 17:14:42;;;;;;;29.30;21.95;;;27.00;99.90;;;;;;5036209;28;20026;-64
2022/11/07 17:17:11;;;;;;;32.55;20.10;;;26.90;99.90;;;;;;5025627;28;20427;-66
2022/11/07 17:19:37;;;;;;;30.38;21.10;;;26.90;99.90;;;;;;5036632;28;20032;-65
2022/11/07 17:22:04;;;;;;;31.58;20.52;;;26.90;99.90;;;;;;5036204;28;20021;-65
2022/11/07 17:24:31;;;;;;;29.40;18.60;;;26.90;99.90;;;;;;5036194;28;20033;-65
2022/11/07 17:26:58;;;;;;;26.60;18.92;;;26.90;99.90;;;;;;5036245;28;20075;-65
2022/11/07 17:29:25;;;;;;;26.10;20.65;;;26.80;99.90;;;;;;5036343;28;20086;-65
2022/11/07 17:31:52;;;;;;;31.13;21.20;;;26.80;99.90;;;;;;5036236;28;20477;-65
2022/11/07 17:34:20;;;;;;;32.65;22.77;;;26.80;99.90;;;;;;5035844;28;20036;-64
2022/11/07 17:36:49;;;;;;;46.28;23.52;;;26.80;99.90;;;;;;5036329;28;20052;-65
2022/11/07 17:39:19;;;;;;;31.40;22.40;;;26.80;99.90;;;;;;5036136;28;20029;-65
2022/11/07 17:41:48;;;;;;;37.80;24.10;;;26.80;99.90;;;;;;5036043;28;20022;-65
2022/11/07 17:44:16;;;;;;;37.67;21.88;;;26.80;99.90;;;;;;5036234;28;20470;-65
2022/11/07 17:46:45;;;;;;;35.70;22.00;;;26.80;99.90;;;;;;5035511;28;20029;-65
2022/11/07 17:49:15;;;;;;;32.75;22.67;;;26.80;99.90;;;;;;5035628;28;20082;-65
2022/11/07 17:51:42;;;;;;;31.13;21.45;;;26.80;99.90;;;;;;5036041;28;20029;-65
2022/11/07 17:54:12;;;;;;;28.92;20.95;;;26.80;99.90;;;;;;5071600;23;20136;-66
2022/11/07 17:56:39;;;;;;;34.95;23.23;;;26.80;99.90;;;;;;5044041;28;20029;-66
2022/11/07 17:59:11;;;;;;;39.30;23.85;;;26.90;99.90;;;;;;5049994;28;20017;-66
2022/11/07 18:01:39;;;;;;;40.30;26.00;;;27.00;99.90;;;;;;5055718;28;20017;-64
2022/11/07 18:04:09;;;;;;;48.85;29.63;;;27.00;99.90;;;;;;5055603;28;20150;-65
2022/11/07 18:06:37;;;;;;;57.97;35.70;;;26.90;99.90;;;;;;5055610;28;20025;-65
2022/11/07 18:09:06;;;;;;;57.53;33.88;;;26.90;99.90;;;;;;5055251;28;20033;-66
2022/11/07 18:11:34;;;;;;;51.05;31.40;;;26.90;99.90;;;;;;5055501;28;20289;-68
2022/11/07 18:14:01;;;;;;;70.93;34.83;;;26.80;99.90;;;;;;5055342;28;20404;-66